sensor_id;sensor_type;location;lat;lon;timestamp;temperature;humidity
10678;DHT22;5387;48.722;9.110;2022-09-09T00:01:22;13.60;99.90
10678;DHT22;5387;48.722;9.110;2022-09-09T00:03:54;13.60;99.90
10678;DHT22;5387;48.722;9.110;2022-09-09T00:06:28;13.70;99.90
10678;DHT22;5387;48.722;9.110;2022-09-09T00:09:02;13.70;99.90
10678;DHT22;5387;48.722;9.110;2022-09-09T00:11:36;13.70;99.90
10678;DHT22;5387;48.722;9.110;2022-09-09T00:14:12;13.70;99.90
10678;DHT22;5387;48.722;9.110;2022-09-09T00:16:45;13.70;99.90
10678;DHT22;5387;48.722;9.110;2022-09-09T00:19:22;13.80;99.90
10678;DHT22;5387;48.722;9.110;2022-09-09T00:21:55;13.80;99.90
10678;DHT22;5387;48.722;9.110;2022-09-09T00:24:28;13.80;99.90
10678;DHT22;5387;48.722;9.110;2022-09-09T00:27:01;13.90;99.90
10678;DHT22;5387;48.722;9.110;2022-09-09T00:29:37;14.00;99.90
10678;DHT22;5387;48.722;9.110;2022-09-09T00:32:12;14.10;99.90
10678;DHT22;5387;48.722;9.110;2022-09-09T00:34:47;14.20;99.90
10678;DHT22;5387;48.722;9.110;2022-09-09T00:37:15;14.30;99.90
10678;DHT22;5387;48.722;9.110;2022-09-09T00:39:46;14.30;99.90
10678;DHT22;5387;48.722;9.110;2022-09-09T00:42:16;14.30;99.90
10678;DHT22;5387;48.722;9.110;2022-09-09T00:44:58;14.40;99.90
10678;DHT22;5387;48.722;9.110;2022-09-09T00:47:40;14.60;99.90
10678;DHT22;5387;48.722;9.110;2022-09-09T00:53:05;14.70;99.90
10678;DHT22;5387;48.722;9.110;2022-09-09T00:55:45;14.90;99.90
10678;DHT22;5387;48.722;9.110;2022-09-09T00:58:13;15.10;99.90
10678;DHT22;5387;48.722;9.110;2022-09-09T01:00:43;15.00;99.90
10678;DHT22;5387;48.722;9.110;2022-09-09T01:03:20;15.00;99.90
10678;DHT22;5387;48.722;9.110;2022-09-09T01:05:56;15.10;99.90
10678;DHT22;5387;48.722;9.110;2022-09-09T01:08:56;14.90;99.90
10678;DHT22;5387;48.722;9.110;2022-09-09T01:11:28;15.10;99.90
10678;DHT22;5387;48.722;9.110;2022-09-09T01:14:05;15.00;99.90
10678;DHT22;5387;48.722;9.110;2022-09-09T01:16:36;15.00;99.90
10678;DHT22;5387;48.722;9.110;2022-09-09T01:19:04;15.00;99.90
10678;DHT22;5387;48.722;9.110;2022-09-09T01:21:39;15.00;99.90
10678;DHT22;5387;48.722;9.110;2022-09-09T01:24:20;15.00;99.90
10678;DHT22;5387;48.722;9.110;2022-09-09T01:26:51;15.00;99.90
10678;DHT22;5387;48.722;9.110;2022-09-09T01:29:21;15.00;99.90
10678;DHT22;5387;48.722;9.110;2022-09-09T01:31:56;15.10;99.90
10678;DHT22;5387;48.722;9.110;2022-09-09T01:34:25;15.00;99.90
10678;DHT22;5387;48.722;9.110;2022-09-09T01:36:57;15.00;99.90
10678;DHT22;5387;48.722;9.110;2022-09-09T01:39:24;15.10;99.90
10678;DHT22;5387;48.722;9.110;2022-09-09T01:41:53;15.00;99.90
10678;DHT22;5387;48.722;9.110;2022-09-09T01:44:21;15.10;99.90
10678;DHT22;5387;48.722;9.110;2022-09-09T01:46:49;15.10;99.90
10678;DHT22;5387;48.722;9.110;2022-09-09T01:49:16;15.10;99.90
10678;DHT22;5387;48.722;9.110;2022-09-09T01:51:43;15.10;99.90
10678;DHT22;5387;48.722;9.110;2022-09-09T01:54:12;15.10;99.90
10678;DHT22;5387;48.722;9.110;2022-09-09T01:56:47;15.10;99.90
10678;DHT22;5387;48.722;9.110;2022-09-09T01:59:38;15.10;99.90
10678;DHT22;5387;48.722;9.110;2022-09-09T02:02:10;15.20;99.90
10678;DHT22;5387;48.722;9.110;2022-09-09T02:04:40;15.20;99.90
10678;DHT22;5387;48.722;9.110;2022-09-09T02:07:19;15.20;99.90
10678;DHT22;5387;48.722;9.110;2022-09-09T02:09:55;15.20;99.90
10678;DHT22;5387;48.722;9.110;2022-09-09T02:12:25;15.20;99.90
10678;DHT22;5387;48.722;9.110;2022-09-09T02:14:59;15.20;99.90
10678;DHT22;5387;48.722;9.110;2022-09-09T02:17:31;15.10;99.90
10678;DHT22;5387;48.722;9.110;2022-09-09T02:20:05;15.10;99.90
10678;DHT22;5387;48.722;9.110;2022-09-09T02:22:36;15.10;99.90
10678;DHT22;5387;48.722;9.110;2022-09-09T02:25:07;15.10;99.90
10678;DHT22;5387;48.722;9.110;2022-09-09T02:27:35;15.00;99.90
10678;DHT22;5387;48.722;9.110;2022-09-09T02:30:04;14.80;99.90
10678;DHT22;5387;48.722;9.110;2022-09-09T02:32:32;14.80;99.90
10678;DHT22;5387;48.722;9.110;2022-09-09T02:35:03;14.70;99.90
10678;DHT22;5387;48.722;9.110;2022-09-09T02:37:35;14.60;99.90
10678;DHT22;5387;48.722;9.110;2022-09-09T02:40:03;14.60;99.90
10678;DHT22;5387;48.722;9.110;2022-09-09T02:42:30;14.50;99.90
10678;DHT22;5387;48.722;9.110;2022-09-09T02:44:58;14.50;99.90
10678;DHT22;5387;48.722;9.110;2022-09-09T02:47:34;14.40;99.90
10678;DHT22;5387;48.722;9.110;2022-09-09T02:50:08;14.40;99.90
10678;DHT22;5387;48.722;9.110;2022-09-09T02:52:44;14.30;99.90
10678;DHT22;5387;48.722;9.110;2022-09-09T02:55:17;14.30;99.90
10678;DHT22;5387;48.722;9.110;2022-09-09T02:57:47;14.30;99.90
10678;DHT22;5387;48.722;9.110;2022-09-09T03:00:15;14.30;99.90
10678;DHT22;5387;48.722;9.110;2022-09-09T03:02:43;14.40;99.90
10678;DHT22;5387;48.722;9.110;2022-09-09T03:05:10;14.40;99.90
10678;DHT22;5387;48.722;9.110;2022-09-09T03:07:38;14.40;99.90
10678;DHT22;5387;48.722;9.110;2022-09-09T03:10:06;14.50;99.90
10678;DHT22;5387;48.722;9.110;2022-09-09T03:12:33;14.40;99.90
10678;DHT22;5387;48.722;9.110;2022-09-09T03:15:00;14.50;99.90
10678;DHT22;5387;48.722;9.110;2022-09-09T03:17:27;14.50;99.90
10678;DHT22;5387;48.722;9.110;2022-09-09T03:19:55;14.40;99.90
10678;DHT22;5387;48.722;9.110;2022-09-09T03:22:23;14.40;99.90
10678;DHT22;5387;48.722;9.110;2022-09-09T03:24:50;14.40;99.90
10678;DHT22;5387;48.722;9.110;2022-09-09T03:27:17;14.30;99.90
10678;DHT22;5387;48.722;9.110;2022-09-09T03:29:45;14.20;99.90
10678;DHT22;5387;48.722;9.110;2022-09-09T03:32:12;14.20;99.90
10678;DHT22;5387;48.722;9.110;2022-09-09T03:34:41;14.20;99.90
10678;DHT22;5387;48.722;9.110;2022-09-09T03:37:09;14.20;99.90
10678;DHT22;5387;48.722;9.110;2022-09-09T03:39:36;14.20;99.90
10678;DHT22;5387;48.722;9.110;2022-09-09T03:42:03;14.10;99.90
10678;DHT22;5387;48.722;9.110;2022-09-09T03:44:31;14.20;99.90
10678;DHT22;5387;48.722;9.110;2022-09-09T03:46:58;14.20;99.90
10678;DHT22;5387;48.722;9.110;2022-09-09T03:49:26;14.20;99.90
10678;DHT22;5387;48.722;9.110;2022-09-09T03:51:54;14.30;99.90
10678;DHT22;5387;48.722;9.110;2022-09-09T03:54:23;14.20;99.90
10678;DHT22;5387;48.722;9.110;2022-09-09T03:56:50;14.30;99.90
10678;DHT22;5387;48.722;9.110;2022-09-09T03:59:16;14.30;99.90
10678;DHT22;5387;48.722;9.110;2022-09-09T04:01:43;14.30;99.90
10678;DHT22;5387;48.722;9.110;2022-09-09T04:04:11;14.20;99.90
10678;DHT22;5387;48.722;9.110;2022-09-09T04:06:37;14.10;99.90
10678;DHT22;5387;48.722;9.110;2022-09-09T04:09:04;14.10;99.90
10678;DHT22;5387;48.722;9.110;2022-09-09T04:11:32;14.00;99.90
10678;DHT22;5387;48.722;9.110;2022-09-09T04:13:59;13.90;99.90
10678;DHT22;5387;48.722;9.110;2022-09-09T04:16:26;13.90;99.90
10678;DHT22;5387;48.722;9.110;2022-09-09T04:18:53;13.90;99.90
10678;DHT22;5387;48.722;9.110;2022-09-09T04:21:21;13.90;99.90
10678;DHT22;5387;48.722;9.110;2022-09-09T04:23:48;14.00;99.90
10678;DHT22;5387;48.722;9.110;2022-09-09T04:26:15;14.10;99.90
10678;DHT22;5387;48.722;9.110;2022-09-09T04:28:44;14.00;99.90
10678;DHT22;5387;48.722;9.110;2022-09-09T04:31:15;14.10;99.90
10678;DHT22;5387;48.722;9.110;2022-09-09T04:33:43;14.10;99.90
10678;DHT22;5387;48.722;9.110;2022-09-09T04:36:10;14.00;99.90
10678;DHT22;5387;48.722;9.110;2022-09-09T04:38:37;14.10;99.90
10678;DHT22;5387;48.722;9.110;2022-09-09T04:41:05;13.90;99.90
10678;DHT22;5387;48.722;9.110;2022-09-09T04:43:32;13.70;99.90
10678;DHT22;5387;48.722;9.110;2022-09-09T04:46:01;13.50;99.90
10678;DHT22;5387;48.722;9.110;2022-09-09T04:48:28;13.30;99.90
10678;DHT22;5387;48.722;9.110;2022-09-09T04:50:56;13.20;99.90
10678;DHT22;5387;48.722;9.110;2022-09-09T04:53:23;13.20;99.90
10678;DHT22;5387;48.722;9.110;2022-09-09T04:55:50;13.20;99.90
10678;DHT22;5387;48.722;9.110;2022-09-09T04:58:17;13.10;99.90
10678;DHT22;5387;48.722;9.110;2022-09-09T05:00:47;13.10;99.90
10678;DHT22;5387;48.722;9.110;2022-09-09T05:03:15;13.20;99.90
10678;DHT22;5387;48.722;9.110;2022-09-09T05:05:42;13.20;99.90
10678;DHT22;5387;48.722;9.110;2022-09-09T05:08:10;13.20;99.90
10678;DHT22;5387;48.722;9.110;2022-09-09T05:10:38;13.40;99.90
10678;DHT22;5387;48.722;9.110;2022-09-09T05:13:07;13.40;99.90
10678;DHT22;5387;48.722;9.110;2022-09-09T05:15:34;13.50;99.90
10678;DHT22;5387;48.722;9.110;2022-09-09T05:18:01;13.40;99.90
10678;DHT22;5387;48.722;9.110;2022-09-09T05:20:30;13.50;99.90
10678;DHT22;5387;48.722;9.110;2022-09-09T05:22:57;13.60;99.90
10678;DHT22;5387;48.722;9.110;2022-09-09T05:25:24;13.70;99.90
10678;DHT22;5387;48.722;9.110;2022-09-09T05:27:52;13.70;99.90
10678;DHT22;5387;48.722;9.110;2022-09-09T05:30:19;13.80;99.90
10678;DHT22;5387;48.722;9.110;2022-09-09T05:32:47;13.90;99.90
10678;DHT22;5387;48.722;9.110;2022-09-09T05:35:14;14.00;99.90
10678;DHT22;5387;48.722;9.110;2022-09-09T05:37:43;14.10;99.90
10678;DHT22;5387;48.722;9.110;2022-09-09T05:40:11;14.20;99.90
10678;DHT22;5387;48.722;9.110;2022-09-09T05:42:38;14.20;99.90
10678;DHT22;5387;48.722;9.110;2022-09-09T05:45:06;14.30;99.90
10678;DHT22;5387;48.722;9.110;2022-09-09T05:47:34;14.40;99.90
10678;DHT22;5387;48.722;9.110;2022-09-09T05:50:01;14.50;99.90
10678;DHT22;5387;48.722;9.110;2022-09-09T05:52:27;14.60;99.90
10678;DHT22;5387;48.722;9.110;2022-09-09T05:54:56;14.60;99.90
10678;DHT22;5387;48.722;9.110;2022-09-09T05:57:22;14.70;99.90
10678;DHT22;5387;48.722;9.110;2022-09-09T05:59:52;14.80;99.90
10678;DHT22;5387;48.722;9.110;2022-09-09T06:02:19;14.80;99.90
10678;DHT22;5387;48.722;9.110;2022-09-09T06:04:46;14.90;99.90
10678;DHT22;5387;48.722;9.110;2022-09-09T06:07:13;14.80;99.90
10678;DHT22;5387;48.722;9.110;2022-09-09T06:09:40;14.90;99.90
10678;DHT22;5387;48.722;9.110;2022-09-09T06:12:08;15.00;99.90
10678;DHT22;5387;48.722;9.110;2022-09-09T06:14:35;15.10;99.90
10678;DHT22;5387;48.722;9.110;2022-09-09T06:17:02;15.10;99.90
10678;DHT22;5387;48.722;9.110;2022-09-09T06:19:29;15.20;99.90
10678;DHT22;5387;48.722;9.110;2022-09-09T06:21:56;15.30;99.90
10678;DHT22;5387;48.722;9.110;2022-09-09T06:24:23;15.40;99.90
10678;DHT22;5387;48.722;9.110;2022-09-09T06:26:49;15.40;99.90
10678;DHT22;5387;48.722;9.110;2022-09-09T06:29:17;15.60;99.90
10678;DHT22;5387;48.722;9.110;2022-09-09T06:31:44;15.50;99.90
10678;DHT22;5387;48.722;9.110;2022-09-09T06:34:11;15.60;99.90
10678;DHT22;5387;48.722;9.110;2022-09-09T06:36:38;15.70;99.90
10678;DHT22;5387;48.722;9.110;2022-09-09T06:39:06;15.70;99.90
10678;DHT22;5387;48.722;9.110;2022-09-09T06:41:34;15.80;99.90
10678;DHT22;5387;48.722;9.110;2022-09-09T06:44:01;15.80;99.90
10678;DHT22;5387;48.722;9.110;2022-09-09T06:46:30;15.80;99.90
10678;DHT22;5387;48.722;9.110;2022-09-09T06:48:59;15.90;99.90
10678;DHT22;5387;48.722;9.110;2022-09-09T06:51:27;15.90;99.90
10678;DHT22;5387;48.722;9.110;2022-09-09T06:53:56;15.90;99.90
10678;DHT22;5387;48.722;9.110;2022-09-09T06:56:25;16.00;99.90
10678;DHT22;5387;48.722;9.110;2022-09-09T06:58:54;16.10;99.90
10678;DHT22;5387;48.722;9.110;2022-09-09T07:01:23;16.30;99.90
10678;DHT22;5387;48.722;9.110;2022-09-09T07:03:53;16.30;99.90
10678;DHT22;5387;48.722;9.110;2022-09-09T07:06:21;16.50;99.90
10678;DHT22;5387;48.722;9.110;2022-09-09T07:08:50;16.50;99.90
10678;DHT22;5387;48.722;9.110;2022-09-09T07:11:18;16.40;99.90
10678;DHT22;5387;48.722;9.110;2022-09-09T07:13:45;16.60;99.90
10678;DHT22;5387;48.722;9.110;2022-09-09T07:16:16;16.50;99.90
10678;DHT22;5387;48.722;9.110;2022-09-09T07:18:44;16.60;99.90
10678;DHT22;5387;48.722;9.110;2022-09-09T07:21:14;16.70;99.90
10678;DHT22;5387;48.722;9.110;2022-09-09T07:23:41;16.80;99.90
10678;DHT22;5387;48.722;9.110;2022-09-09T07:26:09;16.80;99.90
10678;DHT22;5387;48.722;9.110;2022-09-09T07:28:37;16.90;99.90
10678;DHT22;5387;48.722;9.110;2022-09-09T07:31:05;16.90;99.90
10678;DHT22;5387;48.722;9.110;2022-09-09T07:33:33;17.10;99.90
10678;DHT22;5387;48.722;9.110;2022-09-09T07:36:05;17.10;99.90
10678;DHT22;5387;48.722;9.110;2022-09-09T07:38:39;17.20;99.90
10678;DHT22;5387;48.722;9.110;2022-09-09T07:41:07;17.50;99.90
10678;DHT22;5387;48.722;9.110;2022-09-09T07:43:37;17.40;99.90
10678;DHT22;5387;48.722;9.110;2022-09-09T07:46:04;17.30;99.90
10678;DHT22;5387;48.722;9.110;2022-09-09T07:48:31;17.40;99.90
10678;DHT22;5387;48.722;9.110;2022-09-09T07:51:06;17.30;99.90
10678;DHT22;5387;48.722;9.110;2022-09-09T07:53:33;17.40;99.90
10678;DHT22;5387;48.722;9.110;2022-09-09T07:56:08;17.50;99.90
10678;DHT22;5387;48.722;9.110;2022-09-09T07:58:36;17.60;99.90
10678;DHT22;5387;48.722;9.110;2022-09-09T08:01:07;17.80;99.90
10678;DHT22;5387;48.722;9.110;2022-09-09T08:03:35;17.80;99.90
10678;DHT22;5387;48.722;9.110;2022-09-09T08:06:02;17.90;99.90
10678;DHT22;5387;48.722;9.110;2022-09-09T08:08:29;18.00;99.90
10678;DHT22;5387;48.722;9.110;2022-09-09T08:11:05;18.10;99.90
10678;DHT22;5387;48.722;9.110;2022-09-09T08:13:34;18.30;99.90
10678;DHT22;5387;48.722;9.110;2022-09-09T08:16:10;18.40;99.90
10678;DHT22;5387;48.722;9.110;2022-09-09T08:18:37;18.50;99.90
10678;DHT22;5387;48.722;9.110;2022-09-09T08:21:09;18.50;99.90
10678;DHT22;5387;48.722;9.110;2022-09-09T08:23:37;18.50;99.90
10678;DHT22;5387;48.722;9.110;2022-09-09T08:26:06;18.50;99.90
10678;DHT22;5387;48.722;9.110;2022-09-09T08:28:36;18.60;99.90
10678;DHT22;5387;48.722;9.110;2022-09-09T08:31:07;18.70;99.90
10678;DHT22;5387;48.722;9.110;2022-09-09T08:33:34;18.60;99.90
10678;DHT22;5387;48.722;9.110;2022-09-09T08:36:03;18.60;99.90
10678;DHT22;5387;48.722;9.110;2022-09-09T08:38:30;18.80;99.90
10678;DHT22;5387;48.722;9.110;2022-09-09T08:41:01;18.80;99.90
10678;DHT22;5387;48.722;9.110;2022-09-09T08:43:32;18.90;99.90
10678;DHT22;5387;48.722;9.110;2022-09-09T08:46:07;19.00;99.90
10678;DHT22;5387;48.722;9.110;2022-09-09T08:48:47;19.00;99.90
10678;DHT22;5387;48.722;9.110;2022-09-09T08:51:18;19.20;99.90
10678;DHT22;5387;48.722;9.110;2022-09-09T08:53:49;19.40;99.90
10678;DHT22;5387;48.722;9.110;2022-09-09T08:56:20;19.50;99.90
10678;DHT22;5387;48.722;9.110;2022-09-09T08:58:49;19.90;99.90
10678;DHT22;5387;48.722;9.110;2022-09-09T09:01:38;20.10;99.90
10678;DHT22;5387;48.722;9.110;2022-09-09T09:04:16;19.80;99.90
10678;DHT22;5387;48.722;9.110;2022-09-09T09:06:53;19.90;99.90
10678;DHT22;5387;48.722;9.110;2022-09-09T09:09:23;20.00;99.90
10678;DHT22;5387;48.722;9.110;2022-09-09T09:11:55;19.60;99.90
10678;DHT22;5387;48.722;9.110;2022-09-09T09:14:28;19.10;99.90
10678;DHT22;5387;48.722;9.110;2022-09-09T09:16:59;18.40;99.90
10678;DHT22;5387;48.722;9.110;2022-09-09T09:19:28;17.60;99.90
10678;DHT22;5387;48.722;9.110;2022-09-09T09:22:00;16.90;99.90
10678;DHT22;5387;48.722;9.110;2022-09-09T09:24:38;16.40;99.90
10678;DHT22;5387;48.722;9.110;2022-09-09T09:27:12;15.70;99.90
10678;DHT22;5387;48.722;9.110;2022-09-09T09:29:40;15.00;99.90
10678;DHT22;5387;48.722;9.110;2022-09-09T09:32:12;14.70;99.90
10678;DHT22;5387;48.722;9.110;2022-09-09T09:34:40;14.70;99.90
10678;DHT22;5387;48.722;9.110;2022-09-09T09:37:14;14.80;99.90
10678;DHT22;5387;48.722;9.110;2022-09-09T09:39:45;15.10;99.90
10678;DHT22;5387;48.722;9.110;2022-09-09T09:42:14;15.30;99.90
10678;DHT22;5387;48.722;9.110;2022-09-09T09:44:42;15.50;99.90
10678;DHT22;5387;48.722;9.110;2022-09-09T09:47:13;15.60;99.90
10678;DHT22;5387;48.722;9.110;2022-09-09T09:49:51;15.90;99.90
10678;DHT22;5387;48.722;9.110;2022-09-09T09:52:21;16.20;99.90
10678;DHT22;5387;48.722;9.110;2022-09-09T09:54:50;16.60;99.90
10678;DHT22;5387;48.722;9.110;2022-09-09T09:57:18;16.80;99.90
10678;DHT22;5387;48.722;9.110;2022-09-09T10:00:01;17.00;99.90
10678;DHT22;5387;48.722;9.110;2022-09-09T10:02:38;17.40;99.90
10678;DHT22;5387;48.722;9.110;2022-09-09T10:05:13;17.70;99.90
10678;DHT22;5387;48.722;9.110;2022-09-09T10:07:41;18.00;99.90
10678;DHT22;5387;48.722;9.110;2022-09-09T10:10:13;18.10;99.90
10678;DHT22;5387;48.722;9.110;2022-09-09T10:12:51;18.30;99.90
10678;DHT22;5387;48.722;9.110;2022-09-09T10:15:30;18.50;99.90
10678;DHT22;5387;48.722;9.110;2022-09-09T10:18:06;18.60;99.90
10678;DHT22;5387;48.722;9.110;2022-09-09T10:20:40;18.70;99.90
10678;DHT22;5387;48.722;9.110;2022-09-09T10:23:19;19.10;99.90
10678;DHT22;5387;48.722;9.110;2022-09-09T10:26:12;19.20;99.90
10678;DHT22;5387;48.722;9.110;2022-09-09T10:28:56;19.30;99.90
10678;DHT22;5387;48.722;9.110;2022-09-09T10:31:34;19.30;99.90
10678;DHT22;5387;48.722;9.110;2022-09-09T10:34:16;19.10;99.90
10678;DHT22;5387;48.722;9.110;2022-09-09T10:36:48;19.10;99.90
10678;DHT22;5387;48.722;9.110;2022-09-09T10:39:24;19.00;99.90
10678;DHT22;5387;48.722;9.110;2022-09-09T10:42:01;18.90;99.90
10678;DHT22;5387;48.722;9.110;2022-09-09T10:44:47;19.10;99.90
10678;DHT22;5387;48.722;9.110;2022-09-09T10:50:23;19.30;99.90
10678;DHT22;5387;48.722;9.110;2022-09-09T10:53:00;19.70;99.90
10678;DHT22;5387;48.722;9.110;2022-09-09T10:55:35;19.80;99.90
10678;DHT22;5387;48.722;9.110;2022-09-09T10:58:05;20.20;99.90
10678;DHT22;5387;48.722;9.110;2022-09-09T11:00:39;20.40;99.90
10678;DHT22;5387;48.722;9.110;2022-09-09T11:03:10;20.50;99.90
10678;DHT22;5387;48.722;9.110;2022-09-09T11:05:42;20.70;99.90
10678;DHT22;5387;48.722;9.110;2022-09-09T11:08:13;20.90;99.90
10678;DHT22;5387;48.722;9.110;2022-09-09T11:10:45;21.10;99.90
10678;DHT22;5387;48.722;9.110;2022-09-09T11:13:19;21.30;99.90
10678;DHT22;5387;48.722;9.110;2022-09-09T11:15:50;21.30;99.90
10678;DHT22;5387;48.722;9.110;2022-09-09T11:18:20;21.00;99.90
10678;DHT22;5387;48.722;9.110;2022-09-09T11:20:51;20.60;99.90
10678;DHT22;5387;48.722;9.110;2022-09-09T11:23:24;20.30;99.90
10678;DHT22;5387;48.722;9.110;2022-09-09T11:25:55;19.80;99.90
10678;DHT22;5387;48.722;9.110;2022-09-09T11:28:32;19.60;99.90
10678;DHT22;5387;48.722;9.110;2022-09-09T11:31:21;19.40;99.90
10678;DHT22;5387;48.722;9.110;2022-09-09T11:33:58;19.50;99.90
10678;DHT22;5387;48.722;9.110;2022-09-09T11:36:56;19.60;99.90
10678;DHT22;5387;48.722;9.110;2022-09-09T11:39:44;19.30;99.90
10678;DHT22;5387;48.722;9.110;2022-09-09T11:42:18;19.20;99.90
10678;DHT22;5387;48.722;9.110;2022-09-09T11:44:46;19.10;99.90
10678;DHT22;5387;48.722;9.110;2022-09-09T11:47:20;18.80;99.90
10678;DHT22;5387;48.722;9.110;2022-09-09T11:49:50;18.70;99.90
10678;DHT22;5387;48.722;9.110;2022-09-09T11:52:23;18.90;99.90
10678;DHT22;5387;48.722;9.110;2022-09-09T11:54:54;19.60;99.90
10678;DHT22;5387;48.722;9.110;2022-09-09T11:57:25;19.70;99.90
10678;DHT22;5387;48.722;9.110;2022-09-09T11:59:54;19.80;99.90
10678;DHT22;5387;48.722;9.110;2022-09-09T12:02:24;20.20;99.90
10678;DHT22;5387;48.722;9.110;2022-09-09T12:04:57;20.20;99.90
10678;DHT22;5387;48.722;9.110;2022-09-09T12:07:31;19.90;99.90
10678;DHT22;5387;48.722;9.110;2022-09-09T12:10:03;20.40;99.90
10678;DHT22;5387;48.722;9.110;2022-09-09T12:12:33;21.10;99.90
10678;DHT22;5387;48.722;9.110;2022-09-09T12:15:18;21.90;99.90
10678;DHT22;5387;48.722;9.110;2022-09-09T12:17:47;23.90;99.90
10678;DHT22;5387;48.722;9.110;2022-09-09T12:20:17;24.70;99.90
10678;DHT22;5387;48.722;9.110;2022-09-09T12:23:08;24.30;99.90
10678;DHT22;5387;48.722;9.110;2022-09-09T12:26:00;25.10;99.90
10678;DHT22;5387;48.722;9.110;2022-09-09T12:28:42;25.20;97.00
10678;DHT22;5387;48.722;9.110;2022-09-09T12:31:16;24.30;96.60
10678;DHT22;5387;48.722;9.110;2022-09-09T12:33:45;24.00;96.60
10678;DHT22;5387;48.722;9.110;2022-09-09T12:36:15;23.70;96.60
10678;DHT22;5387;48.722;9.110;2022-09-09T12:38:45;23.60;97.40
10678;DHT22;5387;48.722;9.110;2022-09-09T12:41:20;23.30;97.90
10678;DHT22;5387;48.722;9.110;2022-09-09T12:43:47;22.60;97.90
10678;DHT22;5387;48.722;9.110;2022-09-09T12:46:24;21.90;99.50
10678;DHT22;5387;48.722;9.110;2022-09-09T12:48:56;21.40;99.90
10678;DHT22;5387;48.722;9.110;2022-09-09T12:51:27;21.00;99.90
10678;DHT22;5387;48.722;9.110;2022-09-09T12:53:56;20.80;99.90
10678;DHT22;5387;48.722;9.110;2022-09-09T12:56:25;21.00;99.90
10678;DHT22;5387;48.722;9.110;2022-09-09T12:58:55;21.10;99.90
10678;DHT22;5387;48.722;9.110;2022-09-09T13:01:25;20.90;99.90
10678;DHT22;5387;48.722;9.110;2022-09-09T13:03:52;20.80;99.90
10678;DHT22;5387;48.722;9.110;2022-09-09T13:06:22;20.80;99.90
10678;DHT22;5387;48.722;9.110;2022-09-09T13:08:50;20.90;99.90
10678;DHT22;5387;48.722;9.110;2022-09-09T13:11:21;20.70;99.90
10678;DHT22;5387;48.722;9.110;2022-09-09T13:13:53;20.60;99.90
10678;DHT22;5387;48.722;9.110;2022-09-09T13:16:25;21.40;99.90
10678;DHT22;5387;48.722;9.110;2022-09-09T13:18:57;21.90;99.80
10678;DHT22;5387;48.722;9.110;2022-09-09T13:21:35;22.60;99.60
10678;DHT22;5387;48.722;9.110;2022-09-09T13:24:04;22.70;98.60
10678;DHT22;5387;48.722;9.110;2022-09-09T13:26:34;23.00;97.90
10678;DHT22;5387;48.722;9.110;2022-09-09T13:29:15;22.90;97.90
10678;DHT22;5387;48.722;9.110;2022-09-09T13:31:44;23.00;97.70
10678;DHT22;5387;48.722;9.110;2022-09-09T13:34:12;22.70;97.20
10678;DHT22;5387;48.722;9.110;2022-09-09T13:36:40;22.70;97.30
10678;DHT22;5387;48.722;9.110;2022-09-09T13:39:15;22.10;96.90
10678;DHT22;5387;48.722;9.110;2022-09-09T13:41:45;21.70;97.80
10678;DHT22;5387;48.722;9.110;2022-09-09T13:44:20;21.50;98.30
10678;DHT22;5387;48.722;9.110;2022-09-09T13:47:00;22.00;98.80
10678;DHT22;5387;48.722;9.110;2022-09-09T13:49:28;22.10;98.30
10678;DHT22;5387;48.722;9.110;2022-09-09T13:52:04;22.40;98.50
10678;DHT22;5387;48.722;9.110;2022-09-09T13:54:31;21.90;98.10
10678;DHT22;5387;48.722;9.110;2022-09-09T13:56:59;21.70;99.00
10678;DHT22;5387;48.722;9.110;2022-09-09T13:59:27;21.30;98.70
10678;DHT22;5387;48.722;9.110;2022-09-09T14:01:53;21.30;97.80
10678;DHT22;5387;48.722;9.110;2022-09-09T14:04:20;21.30;96.90
10678;DHT22;5387;48.722;9.110;2022-09-09T14:06:47;21.20;96.80
10678;DHT22;5387;48.722;9.110;2022-09-09T14:09:16;20.90;96.50
10678;DHT22;5387;48.722;9.110;2022-09-09T14:11:44;21.00;96.90
10678;DHT22;5387;48.722;9.110;2022-09-09T14:14:13;21.00;97.20
10678;DHT22;5387;48.722;9.110;2022-09-09T14:16:40;21.00;97.00
10678;DHT22;5387;48.722;9.110;2022-09-09T14:19:08;21.00;96.60
10678;DHT22;5387;48.722;9.110;2022-09-09T14:21:35;21.10;96.20
10678;DHT22;5387;48.722;9.110;2022-09-09T14:24:02;21.20;95.90
10678;DHT22;5387;48.722;9.110;2022-09-09T14:26:28;21.40;95.80
10678;DHT22;5387;48.722;9.110;2022-09-09T14:28:55;21.50;95.10
10678;DHT22;5387;48.722;9.110;2022-09-09T14:31:24;21.40;94.80
10678;DHT22;5387;48.722;9.110;2022-09-09T14:33:51;21.20;94.50
10678;DHT22;5387;48.722;9.110;2022-09-09T14:36:18;21.10;94.80
10678;DHT22;5387;48.722;9.110;2022-09-09T14:38:45;21.30;95.10
10678;DHT22;5387;48.722;9.110;2022-09-09T14:41:13;21.40;95.20
10678;DHT22;5387;48.722;9.110;2022-09-09T14:43:42;21.60;94.40
10678;DHT22;5387;48.722;9.110;2022-09-09T14:46:11;21.50;94.40
10678;DHT22;5387;48.722;9.110;2022-09-09T14:48:39;21.30;94.00
10678;DHT22;5387;48.722;9.110;2022-09-09T14:51:07;21.20;94.20
10678;DHT22;5387;48.722;9.110;2022-09-09T14:53:35;21.20;94.10
10678;DHT22;5387;48.722;9.110;2022-09-09T14:56:06;21.00;94.30
10678;DHT22;5387;48.722;9.110;2022-09-09T14:58:33;20.90;94.50
10678;DHT22;5387;48.722;9.110;2022-09-09T15:01:05;20.90;94.40
10678;DHT22;5387;48.722;9.110;2022-09-09T15:03:32;20.90;94.90
10678;DHT22;5387;48.722;9.110;2022-09-09T15:06:05;21.00;94.70
10678;DHT22;5387;48.722;9.110;2022-09-09T15:08:32;21.20;94.80
10678;DHT22;5387;48.722;9.110;2022-09-09T15:10:59;21.00;94.50
10678;DHT22;5387;48.722;9.110;2022-09-09T15:13:27;20.80;95.00
10678;DHT22;5387;48.722;9.110;2022-09-09T15:15:54;20.70;94.80
10678;DHT22;5387;48.722;9.110;2022-09-09T15:18:21;20.70;95.30
10678;DHT22;5387;48.722;9.110;2022-09-09T15:20:47;20.80;94.90
10678;DHT22;5387;48.722;9.110;2022-09-09T15:23:16;20.80;95.10
10678;DHT22;5387;48.722;9.110;2022-09-09T15:25:52;20.90;95.30
10678;DHT22;5387;48.722;9.110;2022-09-09T15:28:20;21.20;95.00
10678;DHT22;5387;48.722;9.110;2022-09-09T15:30:48;21.40;95.20
10678;DHT22;5387;48.722;9.110;2022-09-09T15:33:15;21.50;94.70
10678;DHT22;5387;48.722;9.110;2022-09-09T15:35:42;21.70;96.10
10678;DHT22;5387;48.722;9.110;2022-09-09T15:38:09;21.60;95.30
10678;DHT22;5387;48.722;9.110;2022-09-09T15:40:38;21.10;94.70
10678;DHT22;5387;48.722;9.110;2022-09-09T15:43:05;20.70;94.80
10678;DHT22;5387;48.722;9.110;2022-09-09T15:45:32;20.40;94.50
10678;DHT22;5387;48.722;9.110;2022-09-09T15:47:59;20.20;94.20
10678;DHT22;5387;48.722;9.110;2022-09-09T15:50:26;20.20;95.30
10678;DHT22;5387;48.722;9.110;2022-09-09T15:52:54;20.20;95.00
10678;DHT22;5387;48.722;9.110;2022-09-09T15:55:20;20.10;95.00
10678;DHT22;5387;48.722;9.110;2022-09-09T15:57:51;20.10;95.20
10678;DHT22;5387;48.722;9.110;2022-09-09T16:00:18;20.10;95.20
10678;DHT22;5387;48.722;9.110;2022-09-09T16:02:46;20.00;95.40
10678;DHT22;5387;48.722;9.110;2022-09-09T16:05:13;20.00;95.60
10678;DHT22;5387;48.722;9.110;2022-09-09T16:07:40;19.90;95.50
10678;DHT22;5387;48.722;9.110;2022-09-09T16:10:08;19.90;95.60
10678;DHT22;5387;48.722;9.110;2022-09-09T16:12:34;19.80;95.50